Terminal Aerodrome Forecast
Issued by NWS

Home | Current Version | Previous Version | Text Only | Print | Product List | Glossary On
Versions: 1 2 3 4 5 6 7 8 9 10 11 12 13 14 15 16 17 18 19 20 21 22 23 24 25 26 27 28 29 30
000
FTUS41 KOKX 271122
TAFGON
TAF
KGON 271122Z 2712/2812 VRB06KT 6SM BR FEW010 SCT035 BKN200
     FM271600 18010KT P6SM SCT020 BKN035
     FM272000 21008KT 6SM HZ SCT040 BKN120
     FM280100 21006KT 3SM BR BKN010
     FM280600 20005KT 1SM BR BKN005=

USA.gov is the U.S. government's official web portal to all federal, state and local government web resources and services.